Time;durP1;ratioP1;P1;durP2;ratioP2;P2;SDS_P1;SDS_P2;PMS_P1;PMS_P2;Temp;Humidity;BMP_temperature;BMP_pressure;BME280_temperature;BME280_humidity;BME280_pressure;Samples;Min_cycle;Max_cycle;Signal;HPM_P1;HPM_P2
2023/07/01 00:01:00;;;;;;;7.30;4.60;;;15.90;99.90;;;;;;5035035;28;20203;-58
2023/07/01 00:03:30;;;;;;;8.37;4.47;;;15.90;99.90;;;;;;5036024;28;20195;-58
2023/07/01 00:05:57;;;;;;;5.17;4.20;;;15.90;99.90;;;;;;5041119;28;20668;-57
2023/07/01 00:08:22;;;;;;;8.23;3.97;;;15.90;99.90;;;;;;5042165;28;22177;-57
2023/07/01 00:10:48;;;;;;;5.40;3.83;;;15.90;99.90;;;;;;5035239;28;20518;-56
2023/07/01 00:13:13;;;;;;;6.33;3.83;;;15.90;99.90;;;;;;5043183;28;20185;-58
2023/07/01 00:15:39;;;;;;;5.03;3.43;;;15.90;99.90;;;;;;5048058;28;20262;-57
2023/07/01 00:18:05;;;;;;;8.83;3.63;;;15.80;99.90;;;;;;5044857;28;20274;-58
2023/07/01 00:20:32;;;;;;;5.20;3.73;;;15.80;99.90;;;;;;5036676;28;20203;-58
2023/07/01 00:22:57;;;;;;;5.77;3.50;;;15.80;99.90;;;;;;5040433;28;20183;-59
2023/07/01 00:25:23;;;;;;;6.57;3.33;;;15.80;99.90;;;;;;5033054;28;20453;-57
2023/07/01 00:27:49;;;;;;;6.57;3.60;;;15.80;99.90;;;;;;5040626;28;20301;-58
2023/07/01 00:30:15;;;;;;;5.00;3.73;;;15.80;99.90;;;;;;5036981;28;20633;-57
2023/07/01 00:32:40;;;;;;;6.67;4.00;;;15.80;99.90;;;;;;5041132;28;20182;-57
2023/07/01 00:35:06;;;;;;;5.77;3.83;;;15.80;99.90;;;;;;5037948;28;20179;-58
2023/07/01 00:37:31;;;;;;;5.00;3.37;;;15.80;99.90;;;;;;5039822;28;20191;-58
2023/07/01 00:39:57;;;;;;;7.83;3.83;;;15.80;99.90;;;;;;5038829;28;20211;-58
2023/07/01 00:42:23;;;;;;;4.83;3.30;;;15.70;99.90;;;;;;5045442;28;20258;-57
2023/07/01 00:44:48;;;;;;;7.07;3.70;;;15.70;99.90;;;;;;5035032;28;20206;-58
2023/07/01 00:47:14;;;;;;;5.60;3.80;;;15.70;99.90;;;;;;5036334;28;20192;-57
2023/07/01 00:49:40;;;;;;;5.40;3.30;;;15.70;99.90;;;;;;5040339;28;20917;-58
2023/07/01 00:52:06;;;;;;;6.10;3.50;;;15.70;99.90;;;;;;5034946;28;20180;-58
2023/07/01 00:54:34;;;;;;;8.60;3.37;;;15.70;99.90;;;;;;5031380;28;20442;-58
2023/07/01 00:57:03;;;;;;;4.73;3.43;;;15.60;99.90;;;;;;5035512;28;20434;-57
2023/07/01 00:59:32;;;;;;;5.30;3.60;;;15.60;99.90;;;;;;5035047;28;20459;-58
2023/07/01 01:02:03;;;;;;;6.93;3.83;;;15.60;99.90;;;;;;5032401;28;20518;-57
2023/07/01 01:05:02;;;;;;;5.80;3.23;;;15.60;99.90;;;;;;5028915;28;20468;-57
2023/07/01 01:07:48;;;;;;;9.07;4.10;;;15.60;99.90;;;;;;5031571;28;20806;-57
2023/07/01 01:10:27;;;;;;;6.43;3.60;;;15.60;99.90;;;;;;5037840;28;20515;-58
2023/07/01 01:12:57;;;;;;;5.03;3.80;;;15.60;99.90;;;;;;5036625;28;20421;-57
2023/07/01 01:15:24;;;;;;;6.00;3.63;;;15.60;99.90;;;;;;5038385;28;20473;-57
2023/07/01 01:17:52;;;;;;;3.23;2.93;;;15.60;99.90;;;;;;5041896;28;20449;-57
2023/07/01 01:20:20;;;;;;;5.87;3.33;;;15.60;99.90;;;;;;5040855;28;20461;-58
2023/07/01 01:22:52;;;;;;;5.93;3.60;;;15.60;99.90;;;;;;5035585;28;20918;-58
2023/07/01 01:25:45;;;;;;;12.67;3.47;;;15.60;99.90;;;;;;5035815;28;20464;-58
2023/07/01 01:28:11;;;;;;;7.33;3.60;;;15.60;99.90;;;;;;5029635;28;20456;-57
2023/07/01 01:30:37;;;;;;;5.20;3.60;;;15.60;99.90;;;;;;5033861;28;21008;-58
2023/07/01 01:33:03;;;;;;;4.60;2.97;;;15.50;99.90;;;;;;5036869;28;20922;-57
2023/07/01 01:35:29;;;;;;;5.57;3.60;;;15.50;99.90;;;;;;5035532;28;20429;-58
2023/07/01 01:38:20;;;;;;;4.30;3.30;;;15.50;99.90;;;;;;5041010;28;20502;-58
2023/07/01 01:40:58;;;;;;;7.40;3.80;;;15.50;99.90;;;;;;5036822;28;20217;-57
2023/07/01 01:43:49;;;;;;;8.23;3.40;;;15.50;99.90;;;;;;5033738;28;20434;-57
2023/07/01 01:46:17;;;;;;;4.83;3.53;;;15.50;99.90;;;;;;5037819;28;20445;-58
2023/07/01 01:48:42;;;;;;;5.40;3.40;;;15.50;99.90;;;;;;5031377;28;20465;-56
2023/07/01 01:51:09;;;;;;;5.60;3.90;;;15.50;99.90;;;;;;5036832;28;20461;-59
2023/07/01 01:53:38;;;;;;;5.47;3.13;;;15.50;99.90;;;;;;5034443;28;20613;-57
2023/07/01 01:56:04;;;;;;;9.90;4.07;;;15.50;99.90;;;;;;5033536;28;20894;-56
2023/07/01 01:58:29;;;;;;;5.00;3.40;;;15.40;99.90;;;;;;5039325;28;20444;-57
2023/07/01 02:00:55;;;;;;;8.50;3.50;;;15.40;99.90;;;;;;5030201;28;20493;-56
2023/07/01 02:03:21;;;;;;;5.20;3.70;;;15.40;99.90;;;;;;5034574;28;20188;-57
2023/07/01 02:05:46;;;;;;;8.10;3.60;;;15.40;99.90;;;;;;5041193;28;20172;-56
2023/07/01 02:08:12;;;;;;;4.70;3.30;;;15.40;99.90;;;;;;5037488;28;20179;-55
2023/07/01 02:10:38;;;;;;;4.23;2.90;;;15.40;99.90;;;;;;5033364;28;21546;-57
2023/07/01 02:13:05;;;;;;;7.57;4.10;;;15.40;99.90;;;;;;5031217;28;20172;-57
2023/07/01 02:15:31;;;;;;;9.07;4.00;;;15.40;99.90;;;;;;5046610;28;20489;-57
2023/07/01 02:17:56;;;;;;;5.57;3.37;;;15.40;99.90;;;;;;5036251;28;20514;-57
2023/07/01 02:20:22;;;;;;;18.57;4.17;;;15.30;99.90;;;;;;5036938;28;20265;-58
2023/07/01 02:22:48;;;;;;;4.70;3.63;;;15.30;99.90;;;;;;5034996;28;20237;-58
2023/07/01 02:25:14;;;;;;;4.60;3.00;;;15.30;99.90;;;;;;5043801;28;20194;-57
2023/07/01 02:27:39;;;;;;;5.30;3.70;;;15.30;99.90;;;;;;5030855;28;20291;-58
2023/07/01 02:30:07;;;;;;;4.60;3.07;;;15.30;99.90;;;;;;5032325;28;20557;-57
2023/07/01 02:32:33;;;;;;;6.83;3.07;;;15.30;99.90;;;;;;5034357;28;20652;-57
2023/07/01 02:34:58;;;;;;;5.13;3.70;;;15.30;99.90;;;;;;5039638;28;20420;-57
2023/07/01 02:37:24;;;;;;;7.57;4.17;;;15.30;99.90;;;;;;5036749;28;20265;-57
2023/07/01 02:39:49;;;;;;;5.00;3.20;;;15.20;99.90;;;;;;5032685;28;20198;-57
2023/07/01 02:42:19;;;;;;;6.90;3.83;;;15.20;99.90;;;;;;5033794;28;20187;-55
2023/07/01 02:44:48;;;;;;;7.50;3.20;;;15.20;99.90;;;;;;5043197;28;20190;-58
2023/07/01 02:47:18;;;;;;;5.23;3.77;;;15.20;99.90;;;;;;5036773;28;21084;-56
2023/07/01 02:49:43;;;;;;;8.13;3.97;;;15.10;99.90;;;;;;5039687;28;20537;-56
2023/07/01 02:52:10;;;;;;;6.70;3.60;;;15.10;99.90;;;;;;5034323;28;20922;-55
2023/07/01 02:54:39;;;;;;;4.70;3.13;;;15.20;99.90;;;;;;5039995;28;20220;-56
2023/07/01 02:57:07;;;;;;;6.63;3.33;;;15.20;99.90;;;;;;5035083;28;20430;-57
2023/07/01 02:59:33;;;;;;;4.20;3.27;;;15.20;99.90;;;;;;5034508;28;20464;-57
2023/07/01 03:01:59;;;;;;;5.80;3.80;;;15.20;99.90;;;;;;5036932;28;20529;-56
2023/07/01 03:04:24;;;;;;;5.90;3.77;;;15.30;99.90;;;;;;5032310;28;21262;-56
2023/07/01 03:06:50;;;;;;;6.27;3.93;;;15.30;99.90;;;;;;5040171;28;20198;-58
2023/07/01 03:09:16;;;;;;;7.20;4.20;;;15.30;99.90;;;;;;5033435;28;20254;-60
2023/07/01 03:11:43;;;;;;;5.97;4.40;;;15.30;99.90;;;;;;5035469;28;20197;-56
2023/07/01 03:14:09;;;;;;;6.37;4.20;;;15.30;99.90;;;;;;5035561;28;20214;-56
2023/07/01 03:16:35;;;;;;;8.80;4.57;;;15.30;99.90;;;;;;5038508;28;20926;-57
2023/07/01 03:19:00;;;;;;;5.30;4.27;;;15.30;99.90;;;;;;5039943;28;20252;-58
2023/07/01 03:21:27;;;;;;;5.20;3.90;;;15.30;99.90;;;;;;5038325;28;20191;-56
2023/07/01 03:23:53;;;;;;;10.00;4.43;;;15.30;99.90;;;;;;5037997;28;20833;-57
2023/07/01 03:26:18;;;;;;;6.73;4.57;;;15.30;99.90;;;;;;5041821;28;20508;-57
2023/07/01 03:28:45;;;;;;;8.07;3.60;;;15.30;99.90;;;;;;5038230;28;20840;-57
2023/07/01 03:31:10;;;;;;;5.10;3.80;;;15.30;99.90;;;;;;5033343;28;21126;-56
2023/07/01 03:33:36;;;;;;;5.10;3.70;;;15.30;99.90;;;;;;5042500;28;20509;-55
2023/07/01 03:36:02;;;;;;;8.93;4.87;;;15.30;99.90;;;;;;5039689;28;20170;-56
2023/07/01 03:38:28;;;;;;;7.30;4.00;;;15.30;99.90;;;;;;5040799;28;20191;-56
2023/07/01 03:40:53;;;;;;;4.83;4.30;;;15.30;99.90;;;;;;5040207;28;20197;-57
2023/07/01 03:43:19;;;;;;;9.37;4.47;;;15.30;99.90;;;;;;5039379;28;20198;-57
2023/07/01 03:45:44;;;;;;;15.07;4.43;;;15.30;99.90;;;;;;5049472;28;20187;-56
2023/07/01 03:48:10;;;;;;;8.87;5.07;;;15.30;99.90;;;;;;5041290;28;20187;-57
2023/07/01 03:50:35;;;;;;;7.43;5.03;;;15.20;99.90;;;;;;5038616;28;20983;-58
2023/07/01 03:53:01;;;;;;;13.57;4.90;;;15.20;99.90;;;;;;5040194;28;20183;-57
2023/07/01 03:55:27;;;;;;;9.93;4.40;;;15.20;99.90;;;;;;5035196;28;20183;-56
2023/07/01 03:57:52;;;;;;;6.40;4.73;;;15.30;99.90;;;;;;5035852;28;20170;-56
2023/07/01 04:00:18;;;;;;;12.90;5.50;;;15.30;99.90;;;;;;5034592;28;20755;-57
2023/07/01 04:02:48;;;;;;;6.50;5.07;;;15.30;99.90;;;;;;5043608;28;20258;-56
2023/07/01 04:05:15;;;;;;;7.03;4.80;;;15.30;99.90;;;;;;5041544;28;20175;-57
2023/07/01 04:07:41;;;;;;;7.00;5.10;;;15.30;99.90;;;;;;5037741;28;20438;-58
2023/07/01 04:10:08;;;;;;;8.83;5.43;;;15.30;99.90;;;;;;5040927;28;20453;-58
2023/07/01 04:12:34;;;;;;;6.40;4.77;;;15.40;99.90;;;;;;5038328;28;21175;-57
2023/07/01 04:15:01;;;;;;;9.80;5.13;;;15.40;99.90;;;;;;5042617;28;20405;-56
2023/07/01 04:17:27;;;;;;;8.40;5.73;;;15.40;99.90;;;;;;5036953;28;20966;-59
2023/07/01 04:19:53;;;;;;;9.90;6.20;;;15.40;99.90;;;;;;5039509;28;20553;-58
2023/07/01 04:22:20;;;;;;;17.87;6.80;;;15.40;99.90;;;;;;5035958;28;21159;-57
2023/07/01 04:24:45;;;;;;;10.63;5.83;;;15.40;99.90;;;;;;5045019;28;20183;-58
2023/07/01 04:27:11;;;;;;;10.40;7.17;;;15.40;99.90;;;;;;5044670;28;20425;-57
2023/07/01 04:29:36;;;;;;;12.07;6.03;;;15.40;99.90;;;;;;5045791;28;20208;-58
2023/07/01 04:32:02;;;;;;;14.23;7.60;;;15.40;99.90;;;;;;5033634;28;20537;-58
2023/07/01 04:34:28;;;;;;;8.47;6.97;;;15.40;99.90;;;;;;5039217;28;20228;-58
2023/07/01 04:36:53;;;;;;;9.50;6.50;;;15.50;99.90;;;;;;5045647;28;20183;-58
2023/07/01 04:39:22;;;;;;;9.40;6.17;;;15.50;99.90;;;;;;5039239;28;20306;-57
2023/07/01 04:41:48;;;;;;;9.17;6.70;;;15.50;99.90;;;;;;5038931;28;20184;-56
2023/07/01 04:44:14;;;;;;;9.90;7.23;;;15.60;99.90;;;;;;5033847;28;20434;-58
2023/07/01 04:46:39;;;;;;;8.10;5.90;;;15.50;99.90;;;;;;5031443;28;20526;-58
2023/07/01 04:49:05;;;;;;;10.03;6.87;;;15.60;99.90;;;;;;5038676;28;20285;-58
2023/07/01 04:51:32;;;;;;;10.87;7.37;;;15.60;99.90;;;;;;5044536;28;20179;-58
2023/07/01 04:53:57;;;;;;;12.80;7.10;;;15.60;99.90;;;;;;5042755;28;20222;-57
2023/07/01 04:56:23;;;;;;;11.83;6.80;;;15.70;99.90;;;;;;5036907;28;20913;-57
2023/07/01 04:58:50;;;;;;;10.37;7.10;;;15.70;99.90;;;;;;5039360;28;20632;-58
2023/07/01 05:01:15;;;;;;;10.00;6.70;;;15.70;99.90;;;;;;5043582;28;21005;-57
2023/07/01 05:03:41;;;;;;;8.87;6.97;;;15.70;99.90;;;;;;5037638;28;20438;-57
2023/07/01 05:06:06;;;;;;;11.83;7.40;;;15.70;99.90;;;;;;5037073;28;20250;-57
2023/07/01 05:08:32;;;;;;;11.17;7.50;;;15.70;99.90;;;;;;5035976;28;20211;-56
2023/07/01 05:10:57;;;;;;;9.50;6.97;;;15.70;99.90;;;;;;5043490;28;20195;-58
2023/07/01 05:13:23;;;;;;;9.13;7.40;;;15.80;99.90;;;;;;5040265;28;20193;-59
2023/07/01 05:15:49;;;;;;;10.13;6.90;;;15.70;99.90;;;;;;5042584;28;20173;-59
2023/07/01 05:18:14;;;;;;;10.83;7.73;;;15.80;99.90;;;;;;5040288;28;20187;-57
2023/07/01 05:20:40;;;;;;;13.40;7.83;;;15.80;99.90;;;;;;5032998;28;20215;-58
2023/07/01 05:23:05;;;;;;;10.70;6.77;;;15.80;99.90;;;;;;5039497;28;20213;-58
2023/07/01 05:25:31;;;;;;;13.63;6.87;;;15.80;99.90;;;;;;5035357;28;20188;-58
2023/07/01 05:27:56;;;;;;;14.53;8.17;;;15.80;99.90;;;;;;5028507;28;20763;-56
2023/07/01 05:30:22;;;;;;;10.80;6.90;;;15.90;99.90;;;;;;5038721;28;20310;-56
2023/07/01 05:32:48;;;;;;;14.40;7.13;;;16.00;99.90;;;;;;5044755;28;20217;-57
2023/07/01 05:35:14;;;;;;;10.77;8.10;;;16.00;99.90;;;;;;5035554;28;20174;-59
2023/07/01 05:37:39;;;;;;;9.47;7.00;;;16.10;99.90;;;;;;5043813;28;20249;-56
2023/07/01 05:40:05;;;;;;;12.97;7.97;;;16.20;99.90;;;;;;5033594;28;20192;-57
2023/07/01 05:42:31;;;;;;;9.20;7.50;;;16.30;99.90;;;;;;5042713;28;20201;-58
2023/07/01 05:44:57;;;;;;;12.03;7.33;;;16.30;99.90;;;;;;5044517;28;20425;-57
2023/07/01 05:47:22;;;;;;;11.00;7.83;;;16.20;99.90;;;;;;5037743;28;20180;-58
2023/07/01 05:49:48;;;;;;;15.13;7.47;;;16.20;99.90;;;;;;5032131;28;20254;-57
2023/07/01 05:52:13;;;;;;;14.00;6.97;;;16.20;99.90;;;;;;5038917;28;20183;-57
2023/07/01 05:54:39;;;;;;;8.50;6.73;;;16.20;99.90;;;;;;5040795;28;20163;-57
2023/07/01 05:57:05;;;;;;;14.17;7.07;;;16.10;99.90;;;;;;5045917;28;20167;-57
2023/07/01 05:59:31;;;;;;;9.03;7.43;;;16.20;99.90;;;;;;5038061;28;20195;-57
2023/07/01 06:01:56;;;;;;;11.40;6.77;;;16.20;99.90;;;;;;5033641;28;20775;-56
2023/07/01 06:04:22;;;;;;;10.30;6.90;;;16.30;99.90;;;;;;5044043;28;20171;-54
2023/07/01 06:06:48;;;;;;;11.60;7.03;;;16.40;99.90;;;;;;5042940;28;20175;-56
2023/07/01 06:09:16;;;;;;;15.13;6.43;;;16.40;99.90;;;;;;5038917;28;20890;-56
2023/07/01 06:11:41;;;;;;;12.03;6.47;;;16.50;99.90;;;;;;5033073;28;20195;-57
2023/07/01 06:14:07;;;;;;;5.90;5.20;;;16.60;99.90;;;;;;5037047;28;20465;-57
2023/07/01 06:16:32;;;;;;;9.50;5.90;;;16.80;99.90;;;;;;5036950;28;20232;-58
2023/07/01 06:18:58;;;;;;;9.57;6.13;;;16.90;99.90;;;;;;5043786;28;20169;-57
2023/07/01 06:21:24;;;;;;;5.97;5.27;;;17.20;99.90;;;;;;5031564;28;20180;-58
2023/07/01 06:23:54;;;;;;;8.93;6.13;;;17.30;99.90;;;;;;5045584;28;20229;-57
2023/07/01 06:26:20;;;;;;;7.97;5.57;;;17.40;99.90;;;;;;5040746;28;20429;-56
2023/07/01 06:28:45;;;;;;;6.57;5.23;;;17.40;99.90;;;;;;5033167;28;20418;-56
2023/07/01 06:31:11;;;;;;;8.53;5.10;;;17.50;99.90;;;;;;5041585;28;20659;-57
2023/07/01 06:33:40;;;;;;;8.10;4.73;;;17.50;99.90;;;;;;5037598;28;20199;-57
2023/07/01 06:36:07;;;;;;;7.40;5.73;;;17.40;99.90;;;;;;5029322;28;20179;-58
2023/07/01 06:38:32;;;;;;;10.40;4.80;;;17.50;99.90;;;;;;5038213;28;20433;-56
2023/07/01 06:40:58;;;;;;;5.73;4.83;;;17.50;99.90;;;;;;5042835;28;20461;-57
2023/07/01 06:43:24;;;;;;;6.60;5.20;;;17.50;99.90;;;;;;5041560;28;20191;-58
2023/07/01 06:45:49;;;;;;;6.13;5.50;;;17.40;99.90;;;;;;5039750;28;20263;-56
2023/07/01 06:48:15;;;;;;;5.70;4.30;;;17.40;99.90;;;;;;5039314;28;20206;-57
2023/07/01 06:50:40;;;;;;;4.43;3.80;;;17.40;99.90;;;;;;5033601;28;20213;-58
2023/07/01 06:53:06;;;;;;;8.03;5.03;;;17.40;99.90;;;;;;5037873;28;20266;-57
2023/07/01 06:55:32;;;;;;;7.13;4.60;;;17.30;99.90;;;;;;5037264;28;20173;-57
2023/07/01 06:58:01;;;;;;;5.73;4.30;;;17.40;99.90;;;;;;5034966;28;20533;-58
2023/07/01 07:00:28;;;;;;;6.20;4.80;;;17.50;99.90;;;;;;5035244;28;20252;-58
2023/07/01 07:02:54;;;;;;;8.07;5.30;;;17.60;99.90;;;;;;5040841;28;20433;-56
2023/07/01 07:05:19;;;;;;;14.20;5.20;;;17.70;99.90;;;;;;5038558;28;20442;-57
2023/07/01 07:07:45;;;;;;;9.10;4.70;;;17.90;99.90;;;;;;5038225;28;20171;-58
2023/07/01 07:10:11;;;;;;;7.53;4.43;;;17.90;99.90;;;;;;5037279;28;20211;-59
2023/07/01 07:12:37;;;;;;;5.47;4.53;;;18.00;99.20;;;;;;5041520;28;20178;-60
2023/07/01 07:15:02;;;;;;;8.67;4.40;;;18.00;98.10;;;;;;5047619;28;20224;-59
2023/07/01 07:17:28;;;;;;;6.93;3.73;;;18.00;94.00;;;;;;5036519;28;20179;-58
2023/07/01 07:19:54;;;;;;;6.10;4.23;;;18.00;92.80;;;;;;5037330;28;20198;-59
2023/07/01 07:22:20;;;;;;;6.57;4.10;;;18.10;90.70;;;;;;5044831;28;20314;-58
2023/07/01 07:24:45;;;;;;;7.07;4.00;;;18.20;90.80;;;;;;5045056;28;20512;-57
2023/07/01 07:27:11;;;;;;;6.03;4.13;;;18.30;86.10;;;;;;5040924;28;20286;-58
2023/07/01 07:29:37;;;;;;;5.10;3.80;;;18.40;82.10;;;;;;5039459;28;20221;-60
2023/07/01 07:32:03;;;;;;;10.87;4.73;;;18.60;86.60;;;;;;5042357;28;20176;-58
2023/07/01 07:34:29;;;;;;;7.67;4.00;;;18.70;84.30;;;;;;5042293;28;20417;-57
2023/07/01 07:36:54;;;;;;;6.63;3.90;;;18.80;82.40;;;;;;5034095;28;20294;-59
2023/07/01 07:39:20;;;;;;;5.67;4.23;;;18.70;79.50;;;;;;5035665;28;22223;-59
2023/07/01 07:41:46;;;;;;;9.10;4.03;;;18.70;80.50;;;;;;5038697;28;20221;-60
2023/07/01 07:44:12;;;;;;;4.10;3.70;;;18.70;75.30;;;;;;5040565;28;20183;-60
2023/07/01 07:46:38;;;;;;;5.17;3.90;;;18.80;76.30;;;;;;5035963;28;20221;-57
2023/07/01 07:49:04;;;;;;;8.70;4.37;;;18.80;75.40;;;;;;5045305;28;20222;-61
2023/07/01 07:51:30;;;;;;;3.80;3.37;;;18.90;72.70;;;;;;5035253;28;20429;-60
2023/07/01 07:53:56;;;;;;;8.80;3.90;;;19.00;72.20;;;;;;5041209;28;20807;-59
2023/07/01 07:56:22;;;;;;;5.17;4.00;;;19.00;70.80;;;;;;5036266;28;20437;-59
2023/07/01 07:58:48;;;;;;;4.93;3.50;;;18.90;70.30;;;;;;5047299;28;20648;-60
2023/07/01 08:01:13;;;;;;;6.23;3.87;;;18.80;73.00;;;;;;5038867;28;20465;-58
2023/07/01 08:03:40;;;;;;;7.80;3.93;;;18.70;70.80;;;;;;5038958;28;20253;-59
2023/07/01 08:06:06;;;;;;;5.00;3.37;;;18.60;70.70;;;;;;5040434;28;20658;-59
2023/07/01 08:08:32;;;;;;;5.53;3.80;;;18.50;69.00;;;;;;5044701;28;20806;-59
2023/07/01 08:11:01;;;;;;;4.53;3.97;;;18.40;72.00;;;;;;5032260;28;20472;-56
2023/07/01 08:13:27;;;;;;;6.67;3.50;;;18.30;76.00;;;;;;5043800;28;20281;-58
2023/07/01 08:15:53;;;;;;;9.23;3.50;;;18.30;74.20;;;;;;5038983;28;20524;-57
2023/07/01 08:18:19;;;;;;;9.57;3.77;;;18.40;70.40;;;;;;5041750;28;20302;-57
2023/07/01 08:20:45;;;;;;;8.87;4.33;;;18.30;71.50;;;;;;5025986;28;20967;-54
2023/07/01 08:23:11;;;;;;;8.40;3.70;;;18.30;70.10;;;;;;5030647;28;20183;-59
2023/07/01 08:25:39;;;;;;;5.60;3.50;;;18.40;73.20;;;;;;5030507;28;20867;-55
2023/07/01 08:28:05;;;;;;;5.37;3.63;;;18.50;67.20;;;;;;5026586;28;20952;-55
2023/07/01 08:30:31;;;;;;;6.00;3.47;;;18.50;66.10;;;;;;5029711;28;21249;-55
2023/07/01 08:32:56;;;;;;;9.27;2.93;;;18.50;65.40;;;;;;5031127;28;20187;-57
2023/07/01 08:35:22;;;;;;;6.90;3.50;;;18.50;64.80;;;;;;5031402;28;20209;-58
2023/07/01 08:37:47;;;;;;;4.37;3.90;;;18.50;64.30;;;;;;5025824;28;20201;-56
2023/07/01 08:40:14;;;;;;;4.17;3.47;;;18.60;65.20;;;;;;5033259;28;20203;-56
2023/07/01 08:42:51;;;;;;;6.17;2.93;;;18.70;66.80;;;;;;5033099;28;20175;-56
2023/07/01 08:45:21;;;;;;;6.67;3.93;;;18.70;66.40;;;;;;5035259;28;20845;-57
2023/07/01 08:47:50;;;;;;;5.50;2.83;;;18.80;67.20;;;;;;5037891;28;20430;-57
2023/07/01 08:50:19;;;;;;;5.07;3.00;;;18.90;63.70;;;;;;5032758;28;20496;-61
2023/07/01 08:52:53;;;;;;;5.47;3.27;;;18.90;63.10;;;;;;5026809;28;20848;-58
2023/07/01 08:55:19;;;;;;;4.80;3.10;;;18.90;65.00;;;;;;5035259;28;20545;-58
2023/07/01 08:57:44;;;;;;;3.93;3.13;;;18.90;64.30;;;;;;5030369;28;20890;-58
2023/07/01 09:00:12;;;;;;;5.20;3.10;;;18.90;63.90;;;;;;5032713;28;20511;-59
2023/07/01 09:02:40;;;;;;;4.80;3.07;;;19.00;64.30;;;;;;5034092;28;20175;-58
2023/07/01 09:05:06;;;;;;;4.90;2.80;;;19.10;62.90;;;;;;5031946;28;20512;-58
2023/07/01 09:07:31;;;;;;;3.80;3.27;;;19.30;63.30;;;;;;5030969;28;20440;-59
2023/07/01 09:09:58;;;;;;;6.10;3.63;;;19.40;62.80;;;;;;5032466;28;20454;-57
2023/07/01 09:12:27;;;;;;;5.33;2.77;;;19.50;62.50;;;;;;5040217;28;20650;-58
2023/07/01 09:15:11;;;;;;;7.97;2.87;;;19.50;61.20;;;;;;5025757;28;20968;-59
2023/07/01 09:17:38;;;;;;;7.03;3.20;;;19.50;61.50;;;;;;5029269;28;20418;-58
2023/07/01 09:20:07;;;;;;;2.77;2.57;;;19.60;61.40;;;;;;5034149;28;20448;-57
2023/07/01 09:22:35;;;;;;;3.20;2.90;;;19.60;60.90;;;;;;5027794;28;20488;-56
2023/07/01 09:25:00;;;;;;;3.70;2.57;;;19.80;59.70;;;;;;5031475;28;20422;-58
2023/07/01 09:27:39;;;;;;;4.90;2.80;;;20.00;59.20;;;;;;5029951;28;20445;-58
2023/07/01 09:30:21;;;;;;;4.90;2.80;;;20.10;57.70;;;;;;5033368;28;20218;-57
2023/07/01 09:32:48;;;;;;;4.80;2.90;;;20.20;57.00;;;;;;5032624;28;20445;-56
2023/07/01 09:35:13;;;;;;;4.17;2.50;;;20.30;56.90;;;;;;5038234;28;20484;-58
2023/07/01 09:37:39;;;;;;;4.30;2.50;;;20.30;56.80;;;;;;5030766;28;20477;-55
2023/07/01 09:40:34;;;;;;;4.73;2.27;;;20.20;55.40;;;;;;5028889;28;20261;-57
2023/07/01 09:42:59;;;;;;;7.90;2.40;;;20.30;56.80;;;;;;5029219;28;20269;-57
2023/07/01 09:45:26;;;;;;;4.40;2.50;;;20.40;56.00;;;;;;5028202;28;20473;-55
2023/07/01 09:47:52;;;;;;;6.80;2.20;;;20.60;55.50;;;;;;5021766;28;20188;-56
2023/07/01 09:50:26;;;;;;;3.97;2.27;;;20.70;54.50;;;;;;5012089;28;20470;-56
2023/07/01 09:52:53;;;;;;;4.93;2.47;;;20.80;53.20;;;;;;5024160;28;20439;-56
2023/07/01 09:55:19;;;;;;;3.77;2.30;;;21.00;53.20;;;;;;5013759;28;20441;-57
2023/07/01 09:57:45;;;;;;;4.50;2.50;;;20.90;52.20;;;;;;5031462;28;20422;-55
2023/07/01 10:00:15;;;;;;;3.00;2.07;;;20.80;52.80;;;;;;5043199;28;20195;-56
2023/07/01 10:02:43;;;;;;;3.73;2.57;;;20.80;53.20;;;;;;5040893;28;20429;-54
2023/07/01 10:05:09;;;;;;;4.83;2.30;;;21.00;53.00;;;;;;5035204;28;20434;-54
2023/07/01 10:07:34;;;;;;;3.80;2.37;;;21.00;51.00;;;;;;5033853;28;20426;-55
2023/07/01 10:10:00;;;;;;;3.90;2.30;;;20.90;51.50;;;;;;5048555;28;20560;-56
2023/07/01 10:12:27;;;;;;;4.77;2.97;;;20.90;52.20;;;;;;5033085;28;20177;-57
2023/07/01 10:14:54;;;;;;;2.47;2.03;;;21.00;50.90;;;;;;5039669;28;20328;-55
2023/07/01 10:17:19;;;;;;;2.23;2.00;;;21.10;49.90;;;;;;5037216;28;20419;-56
2023/07/01 10:19:48;;;;;;;6.03;2.50;;;21.10;50.70;;;;;;5041728;28;20484;-55
2023/07/01 10:22:23;;;;;;;6.93;2.67;;;21.20;50.70;;;;;;5044988;28;20175;-55
2023/07/01 10:24:56;;;;;;;9.63;1.97;;;21.20;49.80;;;;;;5044710;28;20420;-56
2023/07/01 10:27:40;;;;;;;3.20;2.70;;;21.30;50.80;;;;;;5037447;28;20429;-56
2023/07/01 10:30:06;;;;;;;4.07;2.50;;;21.40;50.60;;;;;;5044211;28;20540;-56
2023/07/01 10:32:32;;;;;;;4.63;2.30;;;21.50;50.60;;;;;;5040121;28;20414;-55
2023/07/01 10:35:07;;;;;;;2.77;2.00;;;21.60;49.90;;;;;;5035470;28;20418;-56
2023/07/01 10:37:34;;;;;;;1.80;1.70;;;21.60;49.10;;;;;;5037469;28;20309;-55
2023/07/01 10:40:07;;;;;;;4.90;2.03;;;21.60;49.60;;;;;;5039797;28;20461;-54
2023/07/01 10:42:36;;;;;;;4.30;2.90;;;21.70;50.10;;;;;;5039586;28;20422;-55
2023/07/01 10:45:11;;;;;;;2.83;2.40;;;21.80;51.20;;;;;;5042263;28;20482;-58
2023/07/01 10:47:44;;;;;;;7.40;2.50;;;21.80;50.10;;;;;;5038951;28;20606;-56
2023/07/01 10:50:11;;;;;;;3.73;2.13;;;21.70;50.30;;;;;;5037921;28;20590;-56
2023/07/01 10:52:55;;;;;;;4.27;2.37;;;21.70;51.10;;;;;;5025414;28;20574;-56
2023/07/01 10:55:40;;;;;;;3.30;1.90;;;21.80;50.50;;;;;;5046497;28;20418;-54
2023/07/01 10:58:23;;;;;;;11.10;2.63;;;21.70;50.30;;;;;;5035672;28;20436;-56
2023/07/01 11:00:58;;;;;;;5.60;2.40;;;21.60;50.10;;;;;;5038087;28;20508;-56
2023/07/01 11:03:33;;;;;;;4.13;2.17;;;21.50;49.80;;;;;;5037880;28;20432;-56
2023/07/01 11:05:59;;;;;;;4.00;3.23;;;21.50;50.50;;;;;;5038405;28;20831;-55
2023/07/01 11:08:26;;;;;;;3.40;2.23;;;21.50;51.20;;;;;;5040828;28;20434;-56
2023/07/01 11:10:52;;;;;;;2.73;2.20;;;21.60;50.80;;;;;;5025936;28;20467;-56
2023/07/01 11:13:18;;;;;;;3.80;2.60;;;21.60;50.10;;;;;;5037473;28;20434;-55
2023/07/01 11:16:02;;;;;;;2.83;2.23;;;21.50;50.30;;;;;;5036865;28;20475;-54
2023/07/01 11:18:45;;;;;;;5.90;2.97;;;21.60;50.50;;;;;;5038456;28;20434;-55
2023/07/01 11:21:13;;;;;;;3.00;2.37;;;21.60;50.30;;;;;;5046722;28;21131;-56
2023/07/01 11:23:42;;;;;;;3.43;3.00;;;21.50;50.20;;;;;;5041944;28;20426;-56
2023/07/01 11:26:08;;;;;;;3.93;3.53;;;21.50;50.00;;;;;;5035228;28;20426;-56
2023/07/01 11:28:35;;;;;;;3.43;2.33;;;21.30;50.60;;;;;;5045565;28;20862;-56
2023/07/01 11:31:18;;;;;;;4.43;2.70;;;21.30;51.30;;;;;;5033074;28;20473;-56
2023/07/01 11:33:52;;;;;;;7.27;2.70;;;21.20;51.50;;;;;;5037945;28;20417;-55
2023/07/01 11:36:20;;;;;;;6.40;2.53;;;21.30;51.50;;;;;;5040515;28;20513;-55
2023/07/01 11:38:47;;;;;;;5.13;2.77;;;21.50;52.10;;;;;;5026084;28;20429;-54
2023/07/01 11:41:23;;;;;;;2.60;2.33;;;21.50;50.90;;;;;;5029573;28;22273;-55
2023/07/01 11:43:49;;;;;;;4.60;2.40;;;21.40;51.40;;;;;;5033495;28;20417;-56
2023/07/01 11:46:30;;;;;;;7.20;2.20;;;21.40;52.30;;;;;;5037447;28;20433;-55
2023/07/01 11:48:55;;;;;;;2.87;2.43;;;21.40;52.00;;;;;;5047099;28;20663;-57
2023/07/01 11:51:40;;;;;;;3.67;2.10;;;21.40;51.70;;;;;;5038698;28;20435;-55
2023/07/01 11:54:05;;;;;;;8.83;2.40;;;21.30;51.50;;;;;;5037563;28;20313;-55
2023/07/01 11:56:31;;;;;;;3.63;2.67;;;21.10;52.00;;;;;;5043889;28;20504;-56
2023/07/01 11:58:57;;;;;;;3.80;2.93;;;21.00;53.40;;;;;;5036833;28;20179;-56
2023/07/01 12:01:26;;;;;;;5.47;2.67;;;21.10;53.40;;;;;;5028669;28;20207;-56
2023/07/01 12:03:53;;;;;;;4.10;2.77;;;21.10;53.70;;;;;;5047579;28;20252;-56
2023/07/01 12:06:23;;;;;;;7.30;2.50;;;21.20;54.30;;;;;;5045867;28;20449;-56
2023/07/01 12:08:57;;;;;;;3.13;2.83;;;21.00;52.50;;;;;;5045079;28;20425;-56
2023/07/01 12:11:24;;;;;;;6.77;2.60;;;21.00;52.90;;;;;;5044744;28;20447;-55
2023/07/01 12:13:51;;;;;;;3.60;2.40;;;21.00;53.40;;;;;;5040097;28;20948;-55
2023/07/01 12:16:18;;;;;;;4.43;2.20;;;21.00;53.20;;;;;;5041559;28;20465;-56
2023/07/01 12:18:43;;;;;;;2.60;2.40;;;21.00;53.70;;;;;;5036337;28;20442;-56
2023/07/01 12:21:09;;;;;;;7.50;2.57;;;21.00;53.10;;;;;;5041242;28;20461;-57
2023/07/01 12:23:44;;;;;;;3.17;2.60;;;21.00;53.10;;;;;;5034624;28;20190;-55
2023/07/01 12:26:11;;;;;;;2.50;2.20;;;20.90;53.30;;;;;;5042501;28;20282;-55
2023/07/01 12:28:40;;;;;;;6.10;2.47;;;20.90;53.40;;;;;;5043287;28;20422;-56
2023/07/01 12:31:07;;;;;;;2.77;2.30;;;20.90;53.30;;;;;;5044109;28;20812;-56
2023/07/01 12:33:35;;;;;;;2.67;2.47;;;21.00;53.90;;;;;;5031072;28;20446;-56
2023/07/01 12:36:01;;;;;;;3.53;2.57;;;21.10;54.00;;;;;;5040893;28;20418;-57
2023/07/01 12:38:29;;;;;;;3.90;2.60;;;21.20;53.30;;;;;;5035992;28;20429;-56
2023/07/01 12:40:55;;;;;;;5.23;2.30;;;21.30;53.00;;;;;;5036771;28;20556;-56
2023/07/01 12:43:27;;;;;;;7.30;2.20;;;21.30;52.90;;;;;;5041318;28;20523;-57
2023/07/01 12:45:53;;;;;;;2.90;2.33;;;21.40;53.30;;;;;;5041829;28;20505;-56
2023/07/01 12:48:20;;;;;;;6.03;2.10;;;21.40;52.70;;;;;;5045276;28;20474;-55